Time;durP1;ratioP1;P1;durP2;ratioP2;P2;SDS_P1;SDS_P2;PMS_P1;PMS_P2;Temp;Humidity;BMP_temperature;BMP_pressure;BME280_temperature;BME280_humidity;BME280_pressure;Samples;Min_cycle;Max_cycle;Signal;HPM_P1;HPM_P2
2023/05/12 00:01:01;;;;;;;6.13;3.45;;;17.60;66.00;;;;;;5026749;28;20517;-69
2023/05/12 00:03:27;;;;;;;6.90;3.40;;;17.50;65.40;;;;;;5024080;28;20348;-68
2023/05/12 00:05:53;;;;;;;6.68;3.92;;;17.50;65.50;;;;;;5029909;28;20045;-68
2023/05/12 00:08:18;;;;;;;8.93;4.20;;;17.40;65.40;;;;;;5026372;28;20063;-68
2023/05/12 00:10:44;;;;;;;5.18;2.97;;;17.40;65.60;;;;;;5043350;28;20033;-68
2023/05/12 00:13:10;;;;;;;6.80;3.95;;;17.30;65.60;;;;;;5021394;28;20395;-69
2023/05/12 00:15:36;;;;;;;6.45;3.47;;;17.30;65.60;;;;;;5027694;28;20510;-68
2023/05/12 00:18:02;;;;;;;4.28;3.00;;;17.30;65.60;;;;;;5027935;28;20096;-69
2023/05/12 00:20:27;;;;;;;6.57;3.70;;;17.30;65.80;;;;;;5041634;28;20493;-68
2023/05/12 00:22:53;;;;;;;7.32;3.70;;;17.30;65.80;;;;;;5021606;28;20040;-69
2023/05/12 00:25:18;;;;;;;4.70;3.25;;;17.20;65.90;;;;;;5026838;28;20025;-69
2023/05/12 00:27:44;;;;;;;6.53;3.88;;;17.20;65.80;;;;;;5027602;28;20096;-68
2023/05/12 00:30:10;;;;;;;5.22;3.58;;;17.10;65.80;;;;;;5042303;28;20040;-68
2023/05/12 00:32:36;;;;;;;8.95;3.90;;;17.10;65.90;;;;;;5027076;28;20049;-68
2023/05/12 00:35:02;;;;;;;7.35;3.75;;;17.00;65.90;;;;;;5033647;28;20449;-68
2023/05/12 00:37:27;;;;;;;4.88;3.55;;;17.10;66.10;;;;;;5030039;28;20053;-68
2023/05/12 00:39:53;;;;;;;4.63;3.40;;;17.00;66.00;;;;;;5037678;28;20099;-68
2023/05/12 00:42:19;;;;;;;5.18;3.78;;;16.90;66.00;;;;;;5029096;28;20076;-68
2023/05/12 00:44:46;;;;;;;7.22;3.80;;;16.90;66.00;;;;;;5020160;28;20108;-68
2023/05/12 00:47:11;;;;;;;5.13;3.42;;;16.80;66.00;;;;;;5017614;28;20034;-68
2023/05/12 00:49:41;;;;;;;8.50;3.60;;;16.80;66.20;;;;;;5025235;28;20097;-68
2023/05/12 00:52:07;;;;;;;5.38;3.60;;;16.70;66.30;;;;;;5029194;28;20041;-68
2023/05/12 00:54:34;;;;;;;8.60;3.80;;;16.70;66.30;;;;;;5023811;28;20038;-68
2023/05/12 00:57:00;;;;;;;4.72;3.45;;;16.70;66.50;;;;;;5018991;28;20068;-68
2023/05/12 00:59:25;;;;;;;5.38;3.60;;;16.70;66.40;;;;;;5028248;28;20491;-68
2023/05/12 01:01:51;;;;;;;6.40;4.25;;;16.60;66.50;;;;;;5027011;28;20128;-68
2023/05/12 01:04:17;;;;;;;5.10;3.42;;;16.60;66.50;;;;;;5020560;28;20030;-68
2023/05/12 01:06:57;;;;;;;5.45;3.25;;;16.60;66.50;;;;;;5024223;28;20486;-68
2023/05/12 01:09:22;;;;;;;4.57;3.75;;;16.50;66.70;;;;;;5027822;28;20064;-68
2023/05/12 01:11:48;;;;;;;6.32;3.03;;;16.50;66.70;;;;;;5025907;28;20121;-68
2023/05/12 01:14:14;;;;;;;7.82;3.90;;;16.50;66.80;;;;;;5017956;28;20041;-68
2023/05/12 01:16:49;;;;;;;13.80;4.53;;;16.50;66.70;;;;;;5024818;28;20041;-68
2023/05/12 01:19:19;;;;;;;;;;;16.50;66.80;;;;;;5020980;28;20056;-68
2023/05/12 01:21:44;;;;;;;7.63;3.40;;;16.40;66.50;;;;;;5016995;28;19917;-68
2023/05/12 01:24:14;;;;;;;5.10;3.78;;;16.40;66.70;;;;;;5026328;28;20102;-68
2023/05/12 01:26:39;;;;;;;5.15;3.22;;;16.40;66.90;;;;;;5031460;28;20045;-70
2023/05/12 01:29:06;;;;;;;5.45;3.35;;;16.30;66.90;;;;;;5031489;28;20033;-70
2023/05/12 01:31:32;;;;;;;11.05;3.85;;;16.30;66.90;;;;;;5021404;28;20042;-70
2023/05/12 01:33:57;;;;;;;7.30;3.97;;;16.30;67.50;;;;;;5024664;28;20030;-70
2023/05/12 01:36:23;;;;;;;4.63;3.50;;;16.30;67.10;;;;;;5020857;28;20049;-70
2023/05/12 01:38:49;;;;;;;4.80;3.75;;;16.30;67.20;;;;;;5035952;28;20065;-69
2023/05/12 01:41:15;;;;;;;6.35;3.53;;;16.20;67.10;;;;;;5028742;28;20048;-70
2023/05/12 01:43:40;;;;;;;5.80;3.88;;;16.20;67.20;;;;;;5037326;28;20080;-69
2023/05/12 01:46:06;;;;;;;6.95;4.20;;;16.20;67.30;;;;;;5031698;28;20068;-70
2023/05/12 01:48:32;;;;;;;5.65;4.05;;;16.20;67.40;;;;;;5033017;28;20393;-70
2023/05/12 01:51:00;;;;;;;5.28;3.97;;;16.20;67.40;;;;;;5018196;28;20042;-70
2023/05/12 01:53:26;;;;;;;5.55;3.38;;;16.20;68.00;;;;;;5037641;28;20052;-70
2023/05/12 01:55:51;;;;;;;4.55;3.33;;;16.10;67.40;;;;;;5017934;28;20062;-70
2023/05/12 01:58:19;;;;;;;5.43;3.88;;;16.10;67.50;;;;;;5018652;28;20046;-70
2023/05/12 02:00:44;;;;;;;7.93;4.25;;;16.10;67.50;;;;;;5030378;28;20046;-69
2023/05/12 02:03:10;;;;;;;7.95;4.50;;;16.10;67.60;;;;;;5029547;28;20486;-70
2023/05/12 02:05:36;;;;;;;5.13;3.72;;;16.10;67.70;;;;;;5029233;28;20045;-70
2023/05/12 02:08:03;;;;;;;5.35;3.55;;;16.00;67.70;;;;;;5036930;28;20025;-70
2023/05/12 02:10:29;;;;;;;6.53;3.80;;;16.00;67.80;;;;;;5026827;28;20038;-70
2023/05/12 02:12:54;;;;;;;6.45;3.35;;;16.00;67.90;;;;;;5024633;28;20046;-70
2023/05/12 02:15:20;;;;;;;5.70;3.92;;;16.00;68.00;;;;;;5027738;28;20033;-70
2023/05/12 02:17:46;;;;;;;7.65;4.28;;;16.00;68.00;;;;;;5018703;28;20136;-69
2023/05/12 02:20:11;;;;;;;7.15;3.60;;;15.90;68.00;;;;;;5034785;28;20046;-69
2023/05/12 02:22:37;;;;;;;5.60;3.88;;;15.90;68.10;;;;;;5033510;28;20041;-69
2023/05/12 02:25:03;;;;;;;5.45;3.75;;;15.80;68.10;;;;;;5035814;28;20069;-69
2023/05/12 02:27:31;;;;;;;6.60;3.00;;;15.80;68.20;;;;;;5029873;28;20482;-69
2023/05/12 02:29:56;;;;;;;6.88;3.47;;;15.70;68.30;;;;;;5027596;28;20049;-69
2023/05/12 02:32:22;;;;;;;6.65;4.55;;;15.70;68.50;;;;;;5022832;28;20036;-69
2023/05/12 02:34:49;;;;;;;6.10;3.95;;;15.70;68.60;;;;;;5018955;28;20419;-69
2023/05/12 02:37:14;;;;;;;7.43;4.40;;;15.60;68.70;;;;;;5026730;28;20068;-69
2023/05/12 02:39:40;;;;;;;6.90;3.72;;;15.60;68.70;;;;;;5023746;28;20037;-69
2023/05/12 02:42:06;;;;;;;6.50;3.80;;;15.50;68.80;;;;;;5028836;28;20065;-69
2023/05/12 02:44:31;;;;;;;8.85;4.45;;;15.50;68.90;;;;;;5002223;28;20025;-69
2023/05/12 02:46:57;;;;;;;7.32;3.80;;;15.40;69.00;;;;;;5027729;28;20038;-68
2023/05/12 02:49:22;;;;;;;5.85;3.70;;;15.30;69.10;;;;;;5023588;28;20033;-69
2023/05/12 02:51:48;;;;;;;8.88;4.40;;;15.30;69.30;;;;;;5036223;28;20086;-68
2023/05/12 02:54:14;;;;;;;4.75;3.47;;;15.30;69.30;;;;;;5023728;28;20100;-68
2023/05/12 02:56:39;;;;;;;6.78;3.83;;;15.20;69.40;;;;;;5022014;28;20099;-68
2023/05/12 02:59:05;;;;;;;5.93;3.40;;;15.20;69.50;;;;;;5030877;28;20083;-68
2023/05/12 03:01:30;;;;;;;6.18;4.32;;;15.10;69.60;;;;;;5032161;28;20052;-68
2023/05/12 03:03:56;;;;;;;9.00;4.43;;;15.10;69.80;;;;;;5030750;28;20041;-68
2023/05/12 03:06:22;;;;;;;11.55;4.18;;;15.00;69.90;;;;;;5025227;28;20124;-68
2023/05/12 03:08:47;;;;;;;5.82;3.88;;;15.00;69.90;;;;;;5029147;28;20046;-68
2023/05/12 03:11:13;;;;;;;6.60;3.97;;;15.00;70.00;;;;;;5022366;28;20033;-68
2023/05/12 03:13:38;;;;;;;8.40;4.72;;;14.90;70.10;;;;;;5033506;28;20053;-69
2023/05/12 03:16:04;;;;;;;6.65;4.07;;;14.90;70.20;;;;;;5029667;28;20115;-69
2023/05/12 03:18:30;;;;;;;6.30;4.15;;;14.90;70.40;;;;;;5031686;28;20448;-69
2023/05/12 03:20:55;;;;;;;5.32;3.63;;;14.80;70.40;;;;;;5024190;28;20046;-69
2023/05/12 03:23:21;;;;;;;5.97;3.85;;;14.80;70.50;;;;;;5028715;28;20486;-70
2023/05/12 03:25:47;;;;;;;5.70;4.05;;;14.80;70.60;;;;;;5029235;28;20033;-69
2023/05/12 03:28:12;;;;;;;8.13;3.42;;;14.70;70.60;;;;;;5028543;28;20038;-69
2023/05/12 03:30:38;;;;;;;9.25;4.30;;;14.70;70.70;;;;;;5018924;28;20038;-66
2023/05/12 03:33:03;;;;;;;6.90;3.78;;;14.70;70.80;;;;;;5020407;28;20037;-66
2023/05/12 03:35:29;;;;;;;6.18;3.65;;;14.60;70.80;;;;;;5008323;28;20380;-66
2023/05/12 03:37:55;;;;;;;7.57;4.10;;;14.60;70.90;;;;;;5012143;28;20578;-66
2023/05/12 03:40:21;;;;;;;5.93;4.15;;;14.60;71.00;;;;;;5020260;28;20060;-66
2023/05/12 03:42:46;;;;;;;12.68;4.47;;;14.60;71.10;;;;;;5031005;28;20037;-66
2023/05/12 03:45:12;;;;;;;4.97;3.28;;;14.50;71.20;;;;;;5022206;28;20034;-66
2023/05/12 03:47:39;;;;;;;7.72;3.70;;;14.50;71.20;;;;;;5024131;28;20042;-67
2023/05/12 03:50:06;;;;;;;6.97;3.90;;;14.50;71.30;;;;;;5021093;28;20084;-67
2023/05/12 03:52:32;;;;;;;5.03;3.95;;;14.50;71.50;;;;;;5030587;28;20032;-67
2023/05/12 03:54:57;;;;;;;5.93;3.97;;;14.50;71.70;;;;;;5024619;28;20038;-67
2023/05/12 03:57:23;;;;;;;7.70;4.13;;;14.50;71.70;;;;;;5016598;28;20048;-67
2023/05/12 03:59:49;;;;;;;6.43;3.78;;;14.50;71.70;;;;;;5018137;28;21711;-68
2023/05/12 04:02:14;;;;;;;6.03;4.05;;;14.50;71.70;;;;;;5039177;28;20102;-68
2023/05/12 04:04:40;;;;;;;6.10;4.18;;;14.50;71.80;;;;;;5001029;28;20471;-69
2023/05/12 04:07:06;;;;;;;7.95;3.92;;;14.40;71.80;;;;;;5018585;28;20034;-68
2023/05/12 04:09:32;;;;;;;9.30;4.03;;;14.40;71.80;;;;;;5027655;28;20030;-69
2023/05/12 04:11:57;;;;;;;7.55;4.53;;;14.40;71.80;;;;;;5020291;28;20049;-69
2023/05/12 04:14:23;;;;;;;8.23;4.22;;;14.40;71.90;;;;;;5012614;28;20041;-69
2023/05/12 04:16:49;;;;;;;5.97;4.10;;;14.50;72.10;;;;;;5024229;28;20446;-69
2023/05/12 04:19:14;;;;;;;5.63;4.22;;;14.40;72.00;;;;;;5028467;28;20124;-69
2023/05/12 04:21:40;;;;;;;6.47;4.22;;;14.40;72.20;;;;;;5015987;28;20408;-70
2023/05/12 04:24:06;;;;;;;6.15;4.28;;;14.50;72.20;;;;;;5024220;28;20072;-68
2023/05/12 04:26:31;;;;;;;6.85;4.47;;;14.50;72.30;;;;;;5038241;28;20156;-69
2023/05/12 04:28:57;;;;;;;6.80;3.58;;;14.50;72.30;;;;;;5032527;28;20065;-68
2023/05/12 04:31:23;;;;;;;9.43;4.35;;;14.50;72.30;;;;;;5036300;28;20036;-69
2023/05/12 04:33:48;;;;;;;6.85;4.18;;;14.50;72.20;;;;;;5023307;28;20034;-69
2023/05/12 04:36:14;;;;;;;6.07;3.67;;;14.60;72.20;;;;;;5016179;28;20585;-70
2023/05/12 04:38:40;;;;;;;5.88;4.28;;;14.60;72.30;;;;;;5004363;28;20120;-69
2023/05/12 04:41:06;;;;;;;9.10;4.63;;;14.60;72.30;;;;;;5021834;28;20050;-68
2023/05/12 04:43:32;;;;;;;13.23;5.70;;;14.60;72.30;;;;;;5027743;28;20068;-70
2023/05/12 04:45:58;;;;;;;7.15;4.22;;;14.60;72.40;;;;;;5037752;28;20453;-70
2023/05/12 04:48:23;;;;;;;5.72;3.92;;;14.60;72.40;;;;;;5021043;28;20030;-71
2023/05/12 04:50:49;;;;;;;7.80;4.20;;;14.70;72.50;;;;;;5018409;28;20092;-69
2023/05/12 04:53:15;;;;;;;6.47;4.50;;;14.70;72.60;;;;;;5030519;28;20127;-70
2023/05/12 04:55:41;;;;;;;8.48;4.10;;;14.70;72.60;;;;;;5030665;28;20371;-71
2023/05/12 04:58:07;;;;;;;6.70;4.25;;;14.80;72.60;;;;;;5028510;28;20042;-70
2023/05/12 05:00:33;;;;;;;7.45;4.47;;;14.80;72.50;;;;;;5031971;28;20411;-69
2023/05/12 05:02:58;;;;;;;9.00;3.95;;;14.80;72.60;;;;;;5029581;28;20045;-70
2023/05/12 05:05:24;;;;;;;9.02;4.03;;;14.90;72.70;;;;;;5030071;28;20037;-70
2023/05/12 05:07:50;;;;;;;6.45;4.57;;;14.90;72.70;;;;;;5024572;28;20437;-70
2023/05/12 05:10:15;;;;;;;6.95;4.32;;;15.00;72.70;;;;;;5031167;28;20039;-70
2023/05/12 05:12:41;;;;;;;6.25;3.90;;;15.10;72.70;;;;;;5028504;28;20045;-70
2023/05/12 05:15:08;;;;;;;8.50;4.10;;;15.20;72.70;;;;;;5025012;28;20037;-70
2023/05/12 05:17:34;;;;;;;8.50;4.28;;;15.20;73.00;;;;;;5010048;28;20406;-70
2023/05/12 05:20:00;;;;;;;6.45;4.32;;;15.30;72.70;;;;;;5030268;28;20034;-71
2023/05/12 05:22:26;;;;;;;8.90;4.75;;;15.40;72.50;;;;;;5023988;28;20471;-71
2023/05/12 05:24:51;;;;;;;9.30;5.00;;;15.50;72.20;;;;;;5026506;28;20029;-71
2023/05/12 05:27:17;;;;;;;5.63;4.13;;;15.40;72.10;;;;;;5026367;28;20087;-71
2023/05/12 05:29:43;;;;;;;6.85;3.88;;;15.50;72.00;;;;;;5044407;28;20057;-71
2023/05/12 05:32:08;;;;;;;7.00;4.20;;;15.60;71.90;;;;;;5030735;28;20152;-71
2023/05/12 05:34:34;;;;;;;6.40;4.35;;;15.60;71.80;;;;;;5039417;28;20037;-69
2023/05/12 05:36:59;;;;;;;10.48;4.88;;;15.60;71.70;;;;;;5016589;28;20037;-71
2023/05/12 05:39:29;;;;;;;7.05;4.13;;;15.70;71.70;;;;;;5019476;28;20132;-68
2023/05/12 05:41:55;;;;;;;7.60;4.40;;;15.70;71.50;;;;;;5003850;28;20104;-73
2023/05/12 05:44:21;;;;;;;6.22;4.15;;;15.70;71.50;;;;;;5027756;28;20073;-69
2023/05/12 05:46:46;;;;;;;8.55;3.95;;;15.70;71.70;;;;;;5025529;28;20462;-69
2023/05/12 05:49:12;;;;;;;5.88;3.83;;;15.80;71.50;;;;;;5031638;28;20040;-70
2023/05/12 05:51:37;;;;;;;8.88;4.30;;;15.80;71.40;;;;;;5032080;28;20073;-70
2023/05/12 05:54:03;;;;;;;7.55;3.90;;;15.90;71.60;;;;;;5029311;28;20033;-70
2023/05/12 05:56:29;;;;;;;9.20;4.70;;;15.90;71.50;;;;;;5012931;28;20041;-69
2023/05/12 05:58:55;;;;;;;8.50;4.20;;;16.00;71.30;;;;;;5034123;28;20033;-70
2023/05/12 06:01:21;;;;;;;7.63;3.83;;;16.00;71.00;;;;;;5027046;28;20080;-70
2023/05/12 06:03:47;;;;;;;7.57;4.28;;;16.00;70.80;;;;;;5025163;28;20057;-70
2023/05/12 06:06:12;;;;;;;6.68;4.45;;;16.10;70.80;;;;;;5023817;28;20045;-69
2023/05/12 06:08:38;;;;;;;6.07;3.45;;;16.10;70.80;;;;;;5014639;28;20091;-69
2023/05/12 06:11:03;;;;;;;7.35;4.25;;;16.20;71.00;;;;;;5029508;28;20176;-68
2023/05/12 06:13:29;;;;;;;9.05;4.82;;;16.20;70.60;;;;;;5027913;28;20097;-69
2023/05/12 06:15:55;;;;;;;9.00;4.20;;;16.30;70.70;;;;;;5010959;28;20048;-68
2023/05/12 06:18:21;;;;;;;15.07;4.15;;;16.30;70.60;;;;;;5025431;28;20059;-68
2023/05/12 06:20:47;;;;;;;135.68;14.07;;;16.30;70.50;;;;;;5026013;28;20144;-75
2023/05/12 06:23:12;;;;;;;190.50;21.42;;;16.40;70.80;;;;;;5026769;28;20034;-75
2023/05/12 06:25:38;;;;;;;9.43;4.63;;;16.50;71.20;;;;;;5010283;28;20128;-75
2023/05/12 06:28:03;;;;;;;5.35;3.70;;;16.60;70.70;;;;;;5038421;28;20037;-76
2023/05/12 06:30:29;;;;;;;8.98;4.18;;;16.70;70.50;;;;;;5036548;28;20474;-75
2023/05/12 06:32:55;;;;;;;17.10;4.93;;;16.80;70.50;;;;;;5029040;28;20048;-75
2023/05/12 06:35:21;;;;;;;8.50;4.00;;;16.80;70.60;;;;;;5025389;28;20037;-74
2023/05/12 06:37:49;;;;;;;6.88;4.30;;;16.90;70.40;;;;;;5034008;28;20418;-74
2023/05/12 06:40:16;;;;;;;8.80;3.80;;;17.00;70.30;;;;;;5001716;28;20037;-75
2023/05/12 06:42:42;;;;;;;5.60;3.72;;;17.10;70.50;;;;;;5024023;28;20045;-74
2023/05/12 06:45:08;;;;;;;6.97;3.55;;;17.10;70.00;;;;;;5027381;28;20038;-75
2023/05/12 06:47:34;;;;;;;5.95;3.55;;;17.20;69.30;;;;;;5026027;28;20044;-75
2023/05/12 06:49:59;;;;;;;7.00;3.38;;;17.20;69.20;;;;;;5030054;28;20398;-75
2023/05/12 06:52:25;;;;;;;9.35;3.50;;;17.20;69.20;;;;;;5013484;28;20126;-74
2023/05/12 06:54:50;;;;;;;6.57;3.67;;;17.30;68.80;;;;;;5028930;28;20037;-75
2023/05/12 06:57:16;;;;;;;6.80;3.58;;;17.30;68.70;;;;;;5015722;28;20041;-74
2023/05/12 06:59:42;;;;;;;7.78;3.72;;;17.40;68.30;;;;;;5025481;28;20077;-74
2023/05/12 07:02:07;;;;;;;8.25;3.58;;;17.50;68.40;;;;;;5021298;28;20136;-71
2023/05/12 07:04:34;;;;;;;6.32;3.30;;;17.50;68.20;;;;;;5019940;28;20120;-74
2023/05/12 07:07:00;;;;;;;6.00;3.28;;;17.50;67.80;;;;;;5022997;28;20049;-75
2023/05/12 07:09:25;;;;;;;15.88;4.63;;;17.60;67.70;;;;;;5029409;28;20037;-75
2023/05/12 07:11:51;;;;;;;5.47;3.42;;;17.60;67.40;;;;;;5022570;28;20039;-73
2023/05/12 07:14:17;;;;;;;6.50;3.03;;;17.70;67.50;;;;;;5011819;28;20034;-74
2023/05/12 07:16:43;;;;;;;7.68;4.07;;;17.80;67.50;;;;;;5009368;28;20057;-74
2023/05/12 07:19:08;;;;;;;7.45;3.13;;;17.90;67.40;;;;;;5028384;28;20034;-73
2023/05/12 07:21:35;;;;;;;7.05;4.22;;;17.90;67.20;;;;;;5020064;28;20042;-74
2023/05/12 07:24:01;;;;;;;9.68;3.67;;;18.00;67.20;;;;;;5006553;28;20291;-73
2023/05/12 07:26:28;;;;;;;5.50;3.17;;;18.00;67.10;;;;;;5026441;28;20037;-74
2023/05/12 07:28:53;;;;;;;7.65;3.38;;;18.10;66.80;;;;;;5027152;28;20045;-74
2023/05/12 07:31:19;;;;;;;6.88;3.38;;;18.20;66.70;;;;;;5028583;28;20128;-74
2023/05/12 07:33:45;;;;;;;7.70;3.10;;;18.30;66.50;;;;;;5024573;28;20053;-75
2023/05/12 07:36:10;;;;;;;6.43;3.65;;;18.30;66.50;;;;;;5027602;28;20045;-75
2023/05/12 07:38:36;;;;;;;7.28;3.70;;;18.40;66.60;;;;;;5026485;28;20982;-74
2023/05/12 07:41:02;;;;;;;7.63;3.38;;;18.50;66.50;;;;;;5018380;28;20058;-75
2023/05/12 07:43:28;;;;;;;7.03;3.38;;;18.50;66.50;;;;;;5021759;28;20205;-75
2023/05/12 07:45:55;;;;;;;8.20;4.10;;;18.60;65.80;;;;;;5022245;28;20132;-75
2023/05/12 07:48:21;;;;;;;6.55;3.67;;;18.60;65.40;;;;;;5021583;28;20503;-75
2023/05/12 07:50:46;;;;;;;6.75;3.20;;;18.70;65.30;;;;;;5006999;28;20045;-75
2023/05/12 07:53:12;;;;;;;6.15;3.22;;;18.80;65.40;;;;;;5014111;28;20374;-74
2023/05/12 07:55:37;;;;;;;7.05;3.35;;;18.80;64.70;;;;;;5027039;28;20041;-74
2023/05/12 07:58:03;;;;;;;9.75;3.25;;;18.90;64.40;;;;;;5026256;28;20123;-75
2023/05/12 08:00:29;;;;;;;13.15;3.60;;;19.00;64.70;;;;;;5020733;28;20043;-74
2023/05/12 08:02:54;;;;;;;6.32;3.30;;;19.10;64.50;;;;;;5038967;28;20112;-75
2023/05/12 08:05:20;;;;;;;4.65;3.25;;;19.20;64.20;;;;;;5005059;28;20033;-74
2023/05/12 08:07:46;;;;;;;4.60;3.03;;;19.30;64.30;;;;;;5033931;28;20049;-75
2023/05/12 08:10:12;;;;;;;7.00;3.70;;;19.30;63.90;;;;;;5001419;28;20049;-74
2023/05/12 08:12:40;;;;;;;6.93;3.40;;;19.40;64.00;;;;;;5010812;28;20064;-74
2023/05/12 08:15:07;;;;;;;6.97;3.50;;;19.50;63.20;;;;;;5001331;28;20038;-75
2023/05/12 08:17:33;;;;;;;6.50;2.90;;;19.50;62.60;;;;;;5015050;28;20092;-75
2023/05/12 08:19:58;;;;;;;4.35;2.97;;;19.60;62.20;;;;;;5014956;28;20713;-76
2023/05/12 08:22:24;;;;;;;6.20;2.63;;;19.60;62.00;;;;;;5014383;28;20105;-75
2023/05/12 08:24:51;;;;;;;6.03;2.90;;;19.70;61.60;;;;;;5015567;28;20045;-75
2023/05/12 08:27:17;;;;;;;4.40;2.90;;;19.80;62.40;;;;;;5013456;28;20037;-75
2023/05/12 08:29:43;;;;;;;4.47;2.47;;;19.80;60.90;;;;;;5010734;28;20071;-75
2023/05/12 08:32:08;;;;;;;4.43;3.05;;;19.90;60.70;;;;;;4993058;28;20309;-75
2023/05/12 08:34:34;;;;;;;5.75;3.42;;;19.90;59.90;;;;;;5010159;28;20051;-75
2023/05/12 08:37:00;;;;;;;5.03;2.78;;;20.00;59.80;;;;;;4997360;28;20102;-75
2023/05/12 08:39:29;;;;;;;6.72;3.58;;;20.00;59.60;;;;;;5012401;28;20046;-76
2023/05/12 08:42:33;;;;;;;6.53;2.75;;;20.10;59.50;;;;;;5000353;28;20234;-75
2023/05/12 08:44:59;;;;;;;6.05;2.67;;;20.20;58.90;;;;;;4991626;28;20044;-77
2023/05/12 08:47:26;;;;;;;5.10;2.85;;;20.20;58.60;;;;;;5006589;28;20072;-76
2023/05/12 08:50:00;;;;;;;5.45;2.60;;;20.30;58.30;;;;;;4990068;28;20053;-75
2023/05/12 08:52:32;;;;;;;6.95;2.55;;;20.30;57.80;;;;;;5006895;28;20041;-75
2023/05/12 08:54:58;;;;;;;4.45;2.75;;;20.40;57.60;;;;;;5008637;28;20033;-74
2023/05/12 08:57:24;;;;;;;4.30;2.60;;;20.40;57.00;;;;;;4992604;28;20041;-75
2023/05/12 08:59:54;;;;;;;6.57;3.08;;;20.50;56.90;;;;;;5007100;28;20045;-76
2023/05/12 09:02:21;;;;;;;6.93;3.60;;;20.60;56.60;;;;;;5008047;28;20057;-74
2023/05/12 09:04:48;;;;;;;3.72;2.50;;;20.60;55.70;;;;;;5008178;28;20037;-75
2023/05/12 09:07:14;;;;;;;6.22;2.78;;;20.60;56.20;;;;;;5004262;28;20077;-74
2023/05/12 09:09:44;;;;;;;8.32;2.60;;;20.70;56.40;;;;;;5008928;28;20454;-68
2023/05/12 09:12:13;;;;;;;5.03;3.00;;;20.70;56.60;;;;;;4999678;28;20041;-68
2023/05/12 09:14:40;;;;;;;7.05;2.45;;;20.80;57.40;;;;;;4989072;28;20076;-68
2023/05/12 09:17:06;;;;;;;4.07;2.50;;;20.80;55.50;;;;;;5007526;28;20710;-68
2023/05/12 09:19:33;;;;;;;6.05;2.60;;;20.80;55.70;;;;;;4989951;28;20045;-67
2023/05/12 09:21:59;;;;;;;6.43;2.70;;;20.90;55.60;;;;;;5005396;28;20041;-67
2023/05/12 09:24:39;;;;;;;8.02;3.03;;;21.00;55.40;;;;;;5006712;28;20037;-69
2023/05/12 09:27:06;;;;;;;3.38;2.20;;;21.00;54.70;;;;;;5006375;28;21901;-69
2023/05/12 09:29:32;;;;;;;3.58;2.30;;;21.10;54.40;;;;;;5010916;28;20047;-67
2023/05/12 09:32:00;;;;;;;17.45;3.45;;;21.10;53.50;;;;;;4989124;28;20567;-68
2023/05/12 09:34:32;;;;;;;4.75;2.22;;;21.10;52.10;;;;;;5009204;28;20042;-68
2023/05/12 09:36:59;;;;;;;4.10;2.70;;;21.10;51.60;;;;;;5007606;28;20048;-68
2023/05/12 09:39:25;;;;;;;4.80;2.53;;;21.10;51.40;;;;;;5011353;28;20327;-67
2023/05/12 09:41:51;;;;;;;4.10;2.35;;;21.20;51.30;;;;;;5009798;28;20307;-68
2023/05/12 09:44:17;;;;;;;3.65;2.10;;;21.10;50.50;;;;;;4993210;28;20091;-68
2023/05/12 09:46:44;;;;;;;5.00;2.38;;;21.10;50.30;;;;;;4996752;28;20520;-68
2023/05/12 09:49:10;;;;;;;4.28;2.60;;;21.10;50.50;;;;;;5010916;28;20033;-67
2023/05/12 09:51:36;;;;;;;6.13;2.35;;;21.10;50.60;;;;;;4996343;28;20698;-67
2023/05/12 09:54:02;;;;;;;4.55;2.20;;;21.20;50.40;;;;;;5011781;28;20128;-68
2023/05/12 09:56:30;;;;;;;7.93;2.72;;;21.20;50.20;;;;;;5014415;28;20055;-67
2023/05/12 09:58:57;;;;;;;5.45;2.50;;;21.20;50.50;;;;;;5009204;28;20049;-67
2023/05/12 10:01:23;;;;;;;7.75;2.40;;;21.30;50.70;;;;;;5010230;28;20149;-68
2023/05/12 10:03:54;;;;;;;6.85;2.80;;;21.30;50.30;;;;;;5014258;28;20132;-68
2023/05/12 10:06:32;;;;;;;3.20;2.15;;;21.30;50.60;;;;;;4995981;28;20037;-67
2023/05/12 10:09:15;;;;;;;3.30;2.40;;;21.30;50.50;;;;;;5011476;28;20029;-66
2023/05/12 10:11:41;;;;;;;3.45;2.20;;;21.40;50.40;;;;;;5011241;28;20524;-65
2023/05/12 10:14:08;;;;;;;5.00;2.40;;;21.40;50.20;;;;;;5011060;28;20422;-66
2023/05/12 10:16:35;;;;;;;5.13;2.90;;;21.40;49.90;;;;;;5012603;28;20490;-66
2023/05/12 10:19:03;;;;;;;9.93;2.95;;;21.40;50.50;;;;;;5010313;28;20154;-68
2023/05/12 10:21:29;;;;;;;5.40;2.33;;;21.40;50.40;;;;;;4991588;28;20057;-67
2023/05/12 10:23:56;;;;;;;3.65;2.50;;;21.40;50.10;;;;;;5009095;28;20033;-66
2023/05/12 10:26:22;;;;;;;5.20;2.13;;;21.40;50.60;;;;;;5008341;28;20052;-67
2023/05/12 10:28:49;;;;;;;3.60;2.35;;;21.50;50.40;;;;;;5006642;28;20443;-67
2023/05/12 10:31:15;;;;;;;4.03;2.28;;;21.50;50.50;;;;;;5024707;28;20127;-69
2023/05/12 10:33:40;;;;;;;3.05;2.17;;;21.50;50.30;;;;;;5016991;28;20104;-68
2023/05/12 10:36:19;;;;;;;5.45;2.92;;;21.50;50.50;;;;;;4991615;28;20038;-68
2023/05/12 10:38:48;;;;;;;4.13;2.70;;;21.50;50.50;;;;;;5009433;28;20049;-67
2023/05/12 10:41:15;;;;;;;4.38;2.55;;;21.50;50.90;;;;;;5010292;28;20065;-67
2023/05/12 10:43:44;;;;;;;3.15;2.13;;;21.50;50.90;;;;;;5010222;28;20073;-68
2023/05/12 10:46:16;;;;;;;5.15;3.00;;;21.50;51.20;;;;;;4992171;28;20044;-66
2023/05/12 10:49:09;;;;;;;3.55;2.22;;;21.50;51.40;;;;;;5010394;28;20037;-68
2023/05/12 10:51:44;;;;;;;6.72;2.80;;;21.40;51.20;;;;;;4988887;28;20136;-68
2023/05/12 10:54:18;;;;;;;5.10;2.50;;;21.50;51.10;;;;;;5009197;28;20045;-68
2023/05/12 10:56:44;;;;;;;5.40;2.88;;;21.60;51.30;;;;;;5009181;28;21766;-68
2023/05/12 10:59:23;;;;;;;4.47;2.22;;;21.60;51.20;;;;;;4999939;28;20045;-69
2023/05/12 11:02:10;;;;;;;3.95;2.63;;;21.60;51.10;;;;;;5008286;28;20473;-68
2023/05/12 11:04:54;;;;;;;4.13;2.53;;;21.50;51.20;;;;;;5011958;28;20068;-68
2023/05/12 11:07:22;;;;;;;5.22;2.20;;;21.50;51.40;;;;;;4990652;28;20037;-68
2023/05/12 11:09:48;;;;;;;6.15;2.65;;;21.60;51.60;;;;;;5008196;28;20036;-67
2023/05/12 11:12:14;;;;;;;4.00;2.75;;;21.60;51.30;;;;;;5010472;28;20545;-68
2023/05/12 11:14:41;;;;;;;5.03;2.50;;;21.60;51.00;;;;;;5012177;28;20353;-68
2023/05/12 11:17:10;;;;;;;5.40;2.35;;;21.70;51.10;;;;;;4989647;28;20499;-68
2023/05/12 11:19:38;;;;;;;4.70;2.50;;;21.70;51.10;;;;;;4991481;28;20128;-69
2023/05/12 11:22:08;;;;;;;5.65;2.58;;;21.80;51.10;;;;;;5006470;28;20045;-68
2023/05/12 11:24:34;;;;;;;5.18;2.60;;;21.80;50.70;;;;;;4990910;28;20037;-69
2023/05/12 11:27:00;;;;;;;3.45;2.10;;;21.80;50.50;;;;;;4990417;28;20091;-69
2023/05/12 11:29:26;;;;;;;4.05;2.28;;;21.90;50.70;;;;;;4992673;28;20510;-68
2023/05/12 11:31:52;;;;;;;3.03;2.10;;;22.00;50.90;;;;;;5009909;28;20041;-69
2023/05/12 11:34:22;;;;;;;6.07;2.42;;;22.00;50.00;;;;;;5014228;28;20033;-69
2023/05/12 11:36:50;;;;;;;4.80;2.50;;;22.10;50.40;;;;;;5013801;28;20410;-68
2023/05/12 11:39:18;;;;;;;5.40;2.47;;;22.10;50.10;;;;;;5009197;28;20091;-68
2023/05/12 11:41:44;;;;;;;4.43;2.40;;;22.20;50.60;;;;;;5009312;28;20053;-68
2023/05/12 11:44:28;;;;;;;4.25;2.88;;;22.20;50.00;;;;;;5008803;28;20083;-69
2023/05/12 11:47:01;;;;;;;7.75;2.63;;;22.20;49.80;;;;;;5010073;28;20037;-68
2023/05/12 11:49:30;;;;;;;3.65;2.13;;;22.20;50.00;;;;;;5014516;28;20044;-69
2023/05/12 11:51:58;;;;;;;2.83;2.10;;;22.20;49.60;;;;;;5008616;28;20040;-68
2023/05/12 11:54:26;;;;;;;3.15;2.13;;;22.20;49.30;;;;;;5012428;28;20037;-70
2023/05/12 11:56:53;;;;;;;4.80;2.10;;;22.30;48.90;;;;;;5010131;28;20051;-69
2023/05/12 11:59:34;;;;;;;3.78;2.60;;;22.40;48.80;;;;;;5007660;28;20072;-68
2023/05/12 12:02:02;;;;;;;3.92;2.28;;;22.40;49.10;;;;;;5009861;28;20513;-68
2023/05/12 12:04:35;;;;;;;3.90;2.08;;;22.50;48.10;;;;;;4994348;28;20517;-69
2023/05/12 12:07:01;;;;;;;4.57;2.03;;;22.50;47.90;;;;;;5009845;28;20092;-69
2023/05/12 12:09:31;;;;;;;6.97;2.85;;;22.50;48.00;;;;;;5008945;28;20034;-69
2023/05/12 12:11:57;;;;;;;4.00;2.25;;;22.60;48.00;;;;;;5009315;28;20029;-69
2023/05/12 12:14:23;;;;;;;5.53;2.30;;;22.60;47.40;;;;;;5008924;28;20558;-68
2023/05/12 12:16:49;;;;;;;3.50;2.15;;;22.60;48.20;;;;;;5009636;28;20041;-68
2023/05/12 12:19:14;;;;;;;3.83;2.20;;;22.70;48.70;;;;;;5008742;28;20037;-67
2023/05/12 12:21:41;;;;;;;3.92;2.47;;;22.90;48.10;;;;;;5006788;28;20095;-68
2023/05/12 12:24:07;;;;;;;9.43;2.45;;;22.90;47.10;;;;;;5009495;28;20507;-67
2023/05/12 12:26:33;;;;;;;3.80;2.80;;;22.90;47.10;;;;;;5007515;28;20065;-70
2023/05/12 12:28:58;;;;;;;5.28;2.60;;;22.90;47.20;;;;;;5009373;28;20124;-69
2023/05/12 12:31:24;;;;;;;3.47;2.22;;;22.90;47.30;;;;;;4987609;28;20558;-67
2023/05/12 12:33:50;;;;;;;4.22;2.70;;;22.90;47.60;;;;;;5010073;28;20367;-68
2023/05/12 12:36:15;;;;;;;6.13;2.53;;;22.90;47.50;;;;;;5015047;28;20519;-68
2023/05/12 12:38:41;;;;;;;3.00;2.33;;;22.80;47.60;;;;;;5006087;28;21011;-68
2023/05/12 12:41:07;;;;;;;4.32;2.50;;;22.90;47.80;;;;;;5004316;28;20049;-68
2023/05/12 12:43:32;;;;;;;3.38;2.40;;;22.90;47.40;;;;;;5009725;28;20045;-68